Time,TemperatureF,DewpointF,PressureIn,WindDirection,WindDirectionDegrees,WindSpeedMPH,WindSpeedGustMPH,Humidity,HourlyPrecipIn,Conditions,Clouds,dailyrainin,SolarRadiationWatts/m^2,SoftwareType,DateUTC
2013-05-23 00:11:00,46.0,45.0,-100.00,North,354,2.0,4.0,96,0.00,,,0.23,0.000000,,2013-05-23 05:11:00,
2013-05-23 00:22:00,46.0,45.0,-100.00,North,354,2.0,4.0,96,0.00,,,0.23,0.000000,,2013-05-23 05:22:00,
2013-05-23 00:32:00,46.0,45.0,-100.00,North,354,2.0,4.0,96,0.00,,,0.23,0.000000,,2013-05-23 05:32:00,
2013-05-23 00:42:00,46.0,45.0,-100.00,North,354,2.0,4.0,96,0.00,,,0.23,0.000000,,2013-05-23 05:42:00,
2013-05-23 00:51:00,44.0,43.0,-100.00,NNW,339,2.0,4.0,97,0.00,,,0.22,0.000000,,2013-05-23 05:51:00,
2013-05-23 01:12:00,44.0,43.0,-100.00,NNW,339,2.0,4.0,97,0.00,,,0.22,0.000000,,2013-05-23 06:12:00,
2013-05-23 01:21:00,44.0,43.0,-100.00,NNW,339,2.0,4.0,97,0.00,,,0.22,0.000000,,2013-05-23 06:21:00,
2013-05-23 01:32:00,44.0,43.0,-100.00,NNW,339,2.0,4.0,97,0.00,,,0.22,0.000000,,2013-05-23 06:32:00,
2013-05-23 01:42:00,44.0,43.0,-100.00,NNW,339,2.0,4.0,97,0.00,,,0.22,0.000000,,2013-05-23 06:42:00,
2013-05-23 01:51:00,43.0,43.0,-100.00,NNW,335,2.0,3.0,100,0.00,,,0.21,0.000000,,2013-05-23 06:51:00,
2013-05-23 02:11:00,43.0,43.0,-100.00,NNW,335,2.0,3.0,100,0.00,,,0.21,0.000000,,2013-05-23 07:11:00,
2013-05-23 02:21:00,43.0,43.0,-100.00,NNW,335,2.0,3.0,100,0.00,,,0.21,0.000000,,2013-05-23 07:21:00,
2013-05-23 02:32:00,43.0,43.0,-100.00,NNW,335,2.0,3.0,100,0.00,,,0.21,0.000000,,2013-05-23 07:32:00,
2013-05-23 02:42:00,43.0,43.0,-100.00,NNW,335,2.0,3.0,100,0.00,,,0.21,0.000000,,2013-05-23 07:42:00,
2013-05-23 02:51:00,44.0,44.0,-100.00,North,349,2.0,5.0,100,0.00,,,0.21,0.000000,,2013-05-23 07:51:00,
2013-05-23 03:11:00,44.0,44.0,-100.00,North,349,2.0,5.0,100,0.00,,,0.21,0.000000,,2013-05-23 08:11:00,
2013-05-23 03:22:00,44.0,44.0,-100.00,North,349,2.0,5.0,100,0.00,,,0.21,0.000000,,2013-05-23 08:22:00,
2013-05-23 03:32:00,44.0,44.0,-100.00,North,349,2.0,5.0,100,0.00,,,0.21,0.000000,,2013-05-23 08:32:00,
2013-05-23 03:42:00,44.0,44.0,-100.00,North,349,2.0,5.0,100,0.00,,,0.21,0.000000,,2013-05-23 08:42:00,
2013-05-23 03:51:00,42.0,42.0,-100.00,NE,40,1.0,4.0,100,0.00,,,0.20,0.000000,,2013-05-23 08:51:00,
2013-05-23 04:11:00,42.0,42.0,-100.00,NE,40,1.0,4.0,100,0.00,,,0.20,0.000000,,2013-05-23 09:11:00,
2013-05-23 04:21:00,42.0,42.0,-100.00,NE,40,1.0,4.0,100,0.00,,,0.20,0.000000,,2013-05-23 09:21:00,
2013-05-23 04:33:00,42.0,42.0,-100.00,NE,40,1.0,4.0,100,0.00,,,0.20,0.000000,,2013-05-23 09:33:00,
2013-05-23 04:42:00,42.0,42.0,-100.00,NE,40,1.0,4.0,100,0.00,,,0.20,0.000000,,2013-05-23 09:42:00,
2013-05-23 04:51:00,40.0,40.0,-100.00,WNW,288,2.0,4.0,100,0.00,,,0.18,0.000000,,2013-05-23 09:51:00,
2013-05-23 05:12:00,40.0,40.0,-100.00,WNW,288,2.0,4.0,100,0.00,,,0.18,0.000000,,2013-05-23 10:12:00,
2013-05-23 05:22:00,40.0,40.0,-100.00,WNW,288,2.0,4.0,100,0.00,,,0.18,0.000000,,2013-05-23 10:22:00,
2013-05-23 05:32:00,40.0,40.0,-100.00,WNW,288,2.0,4.0,100,0.00,,,0.18,0.000000,,2013-05-23 10:32:00,
2013-05-23 05:42:00,40.0,40.0,-100.00,WNW,288,2.0,4.0,100,0.00,,,0.18,0.000000,,2013-05-23 10:42:00,
2013-05-23 05:51:00,41.0,41.0,-100.00,NNE,30,2.0,4.0,100,0.00,,,0.14,1.000000,,2013-05-23 10:51:00,
2013-05-23 06:11:00,41.0,41.0,-100.00,NNE,30,2.0,4.0,100,0.00,,,0.14,1.000000,,2013-05-23 11:11:00,
2013-05-23 06:22:00,41.0,41.0,-100.00,NNE,30,2.0,4.0,100,0.00,,,0.14,1.000000,,2013-05-23 11:22:00,
2013-05-23 06:32:00,41.0,41.0,-100.00,NNE,30,2.0,4.0,100,0.00,,,0.14,1.000000,,2013-05-23 11:32:00,
2013-05-23 06:42:00,41.0,41.0,-100.00,NNE,30,2.0,4.0,100,0.00,,,0.14,1.000000,,2013-05-23 11:42:00,
2013-05-23 06:51:00,45.0,45.0,-100.00,NNE,13,2.0,4.0,100,0.00,,,0.09,62.000000,,2013-05-23 11:51:00,
2013-05-23 07:12:00,45.0,45.0,-100.00,NNE,13,2.0,4.0,100,0.00,,,0.09,62.000000,,2013-05-23 12:12:00,
2013-05-23 07:21:00,45.0,45.0,-100.00,NNE,13,2.0,4.0,100,0.00,,,0.09,62.000000,,2013-05-23 12:21:00,
2013-05-23 07:32:00,45.0,45.0,-100.00,NNE,13,2.0,4.0,100,0.00,,,0.09,62.000000,,2013-05-23 12:32:00,
2013-05-23 07:42:00,45.0,45.0,-100.00,NNE,13,2.0,4.0,100,0.00,,,0.09,62.000000,,2013-05-23 12:42:00,
2013-05-23 07:51:00,52.0,43.0,-100.00,ESE,106,6.0,9.0,72,0.00,,,0.07,250.000000,,2013-05-23 12:51:00,
2013-05-23 08:11:00,52.0,43.0,-100.00,ESE,106,6.0,9.0,72,0.00,,,0.07,250.000000,,2013-05-23 13:11:00,
2013-05-23 08:22:00,52.0,43.0,-100.00,ESE,106,6.0,9.0,72,0.00,,,0.07,250.000000,,2013-05-23 13:22:00,
2013-05-23 08:32:00,52.0,43.0,-100.00,ESE,106,6.0,9.0,72,0.00,,,0.07,250.000000,,2013-05-23 13:32:00,
2013-05-23 08:42:00,52.0,43.0,-100.00,ESE,106,6.0,9.0,72,0.00,,,0.07,250.000000,,2013-05-23 13:42:00,
2013-05-23 08:51:00,53.0,40.0,-100.00,East,88,7.0,12.0,61,0.00,,,0.06,421.000000,,2013-05-23 13:51:00,
2013-05-23 09:11:00,53.0,40.0,-100.00,East,88,7.0,12.0,61,0.00,,,0.06,421.000000,,2013-05-23 14:11:00,
2013-05-23 09:21:00,53.0,40.0,-100.00,East,88,7.0,12.0,61,0.00,,,0.06,421.000000,,2013-05-23 14:21:00,
2013-05-23 09:32:00,53.0,40.0,-100.00,East,88,7.0,12.0,61,0.00,,,0.06,421.000000,,2013-05-23 14:32:00,
2013-05-23 09:42:00,53.0,40.0,-100.00,East,88,7.0,12.0,61,0.00,,,0.06,421.000000,,2013-05-23 14:42:00,
2013-05-23 09:51:00,55.0,43.0,-100.00,ESE,102,7.0,11.0,63,0.00,,,0.05,616.000000,,2013-05-23 14:51:00,
2013-05-23 10:11:00,55.0,43.0,-100.00,ESE,102,7.0,11.0,63,0.00,,,0.05,616.000000,,2013-05-23 15:11:00,
2013-05-23 10:21:00,55.0,43.0,-100.00,ESE,102,7.0,11.0,63,0.00,,,0.05,616.000000,,2013-05-23 15:21:00,
2013-05-23 10:33:00,55.0,43.0,-100.00,ESE,102,7.0,11.0,63,0.00,,,0.05,616.000000,,2013-05-23 15:33:00,
2013-05-23 10:42:00,55.0,43.0,-100.00,ESE,102,7.0,11.0,63,0.00,,,0.05,616.000000,,2013-05-23 15:42:00,
2013-05-23 10:51:00,57.0,44.0,-100.00,East,87,6.0,14.0,62,0.00,,,0.05,738.000000,,2013-05-23 15:51:00,
2013-05-23 11:12:00,57.0,44.0,-100.00,East,87,6.0,14.0,62,0.00,,,0.05,738.000000,,2013-05-23 16:12:00,
2013-05-23 11:23:00,57.0,44.0,-100.00,East,87,6.0,14.0,62,0.00,,,0.05,738.000000,,2013-05-23 16:23:00,
2013-05-23 11:33:00,57.0,44.0,-100.00,East,87,6.0,14.0,62,0.00,,,0.05,738.000000,,2013-05-23 16:33:00,
2013-05-23 11:42:00,57.0,44.0,-100.00,East,87,6.0,14.0,62,0.00,,,0.05,738.000000,,2013-05-23 16:42:00,
2013-05-23 11:51:00,58.0,44.0,-100.00,East,92,8.0,12.0,60,0.00,,,0.04,804.000000,,2013-05-23 16:51:00,
2013-05-23 12:11:00,58.0,44.0,-100.00,East,92,8.0,12.0,60,0.00,,,0.04,804.000000,,2013-05-23 17:11:00,
2013-05-23 12:23:00,58.0,44.0,-100.00,East,92,8.0,12.0,60,0.00,,,0.04,804.000000,,2013-05-23 17:23:00,
2013-05-23 12:33:00,58.0,44.0,-100.00,East,92,8.0,12.0,60,0.00,,,0.04,804.000000,,2013-05-23 17:33:00,
2013-05-23 12:43:00,58.0,44.0,-100.00,East,92,8.0,12.0,60,0.00,,,0.04,804.000000,,2013-05-23 17:43:00,
2013-05-23 12:51:00,60.0,48.0,-100.00,ENE,64,7.0,14.0,64,0.00,,,0.02,916.000000,,2013-05-23 17:51:00,
2013-05-23 13:11:00,60.0,48.0,-100.00,ENE,64,7.0,14.0,64,0.00,,,0.02,916.000000,,2013-05-23 18:11:00,
2013-05-23 13:22:00,60.0,48.0,-100.00,ENE,64,7.0,14.0,64,0.00,,,0.02,916.000000,,2013-05-23 18:22:00,
2013-05-23 13:32:00,60.0,48.0,-100.00,ENE,64,7.0,14.0,64,0.00,,,0.02,916.000000,,2013-05-23 18:32:00,
2013-05-23 13:42:00,60.0,48.0,-100.00,ENE,64,7.0,14.0,64,0.00,,,0.02,916.000000,,2013-05-23 18:42:00,
2013-05-23 13:51:00,62.0,46.0,-100.00,ENE,77,7.0,13.0,55,0.00,,,0.01,974.000000,,2013-05-23 18:51:00,
2013-05-23 14:11:00,62.0,46.0,-100.00,ENE,77,7.0,13.0,55,0.00,,,0.01,974.000000,,2013-05-23 19:11:00,
2013-05-23 14:21:00,62.0,46.0,-100.00,ENE,77,7.0,13.0,55,0.00,,,0.01,974.000000,,2013-05-23 19:21:00,
2013-05-23 14:32:00,62.0,46.0,-100.00,ENE,77,7.0,13.0,55,0.00,,,0.01,974.000000,,2013-05-23 19:32:00,
2013-05-23 14:42:00,62.0,46.0,-100.00,ENE,77,7.0,13.0,55,0.00,,,0.01,974.000000,,2013-05-23 19:42:00,
2013-05-23 14:51:00,63.0,45.0,-100.00,East,81,8.0,14.0,52,0.00,,,0.00,1035.000000,,2013-05-23 19:51:00,
2013-05-23 15:11:00,63.0,45.0,-100.00,East,81,8.0,14.0,52,0.00,,,0.00,1035.000000,,2013-05-23 20:11:00,
2013-05-23 15:21:00,63.0,45.0,-100.00,East,81,8.0,14.0,52,0.00,,,0.00,1035.000000,,2013-05-23 20:21:00,
2013-05-23 15:32:00,63.0,45.0,-100.00,East,81,8.0,14.0,52,0.00,,,0.00,1035.000000,,2013-05-23 20:32:00,
2013-05-23 15:42:00,63.0,45.0,-100.00,East,81,8.0,14.0,52,0.00,,,0.00,1035.000000,,2013-05-23 20:42:00,
2013-05-23 15:51:00,64.0,43.0,-100.00,ENE,65,8.0,20.0,47,0.00,,,0.00,918.000000,,2013-05-23 20:51:00,
2013-05-23 16:11:00,64.0,43.0,-100.00,ENE,65,8.0,20.0,47,0.00,,,0.00,918.000000,,2013-05-23 21:11:00,
2013-05-23 16:21:00,64.0,43.0,-100.00,ENE,65,8.0,20.0,47,0.00,,,0.00,918.000000,,2013-05-23 21:21:00,
2013-05-23 16:32:00,64.0,43.0,-100.00,ENE,65,8.0,20.0,47,0.00,,,0.00,918.000000,,2013-05-23 21:32:00,
2013-05-23 16:43:00,64.0,43.0,-100.00,ENE,65,8.0,20.0,47,0.00,,,0.00,918.000000,,2013-05-23 21:43:00,
2013-05-23 16:51:00,65.0,43.0,-100.00,ENE,73,8.0,16.0,44,0.00,,,-99.99,822.000000,,2013-05-23 21:51:00,
2013-05-23 17:12:00,65.0,43.0,-100.00,ENE,73,8.0,16.0,44,0.00,,,-99.99,822.000000,,2013-05-23 22:12:00,
2013-05-23 17:22:00,65.0,43.0,-100.00,ENE,73,8.0,16.0,44,0.00,,,-99.99,822.000000,,2013-05-23 22:22:00,
2013-05-23 17:33:00,65.0,43.0,-100.00,ENE,73,8.0,16.0,44,0.00,,,-99.99,822.000000,,2013-05-23 22:33:00,
2013-05-23 17:42:00,65.0,43.0,-100.00,ENE,73,8.0,16.0,44,0.00,,,-99.99,822.000000,,2013-05-23 22:42:00,
2013-05-23 17:51:00,65.0,42.0,-100.00,East,101,8.0,16.0,43,0.00,,,0.00,654.000000,,2013-05-23 22:51:00,
2013-05-23 18:11:00,65.0,42.0,-100.00,East,101,8.0,16.0,43,0.00,,,0.00,654.000000,,2013-05-23 23:11:00,
2013-05-23 18:21:00,65.0,42.0,-100.00,East,101,8.0,16.0,43,0.00,,,0.00,654.000000,,2013-05-23 23:21:00,
2013-05-23 18:32:00,65.0,42.0,-100.00,East,101,8.0,16.0,43,0.00,,,0.00,654.000000,,2013-05-23 23:32:00,
2013-05-23 18:42:00,65.0,42.0,-100.00,East,101,8.0,16.0,43,0.00,,,0.00,654.000000,,2013-05-23 23:42:00,
2013-05-23 18:51:00,65.0,39.0,-100.00,ESE,110,8.0,13.0,39,0.00,,,0.00,458.000000,,2013-05-23 23:51:00,
2013-05-23 19:12:00,65.0,39.0,-100.00,ESE,110,8.0,13.0,39,0.00,,,0.00,458.000000,,2013-05-24 00:12:00,
2013-05-23 19:21:00,65.0,39.0,-100.00,ESE,110,8.0,13.0,39,0.00,,,0.00,458.000000,,2013-05-24 00:21:00,
2013-05-23 19:32:00,65.0,39.0,-100.00,ESE,110,8.0,13.0,39,0.00,,,0.00,458.000000,,2013-05-24 00:32:00,
2013-05-23 19:42:00,65.0,39.0,-100.00,ESE,110,8.0,13.0,39,0.00,,,0.00,458.000000,,2013-05-24 00:42:00,
2013-05-23 19:51:00,64.0,39.0,-100.00,ESE,121,8.0,16.0,39,0.00,,,0.00,260.000000,,2013-05-24 00:51:00,
2013-05-23 20:12:00,64.0,39.0,-100.00,ESE,121,8.0,16.0,39,0.00,,,0.00,260.000000,,2013-05-24 01:12:00,
2013-05-23 20:22:00,64.0,39.0,-100.00,ESE,121,8.0,16.0,39,0.00,,,0.00,260.000000,,2013-05-24 01:22:00,
2013-05-23 20:32:00,64.0,39.0,-100.00,ESE,121,8.0,16.0,39,0.00,,,0.00,260.000000,,2013-05-24 01:32:00,
2013-05-23 20:42:00,64.0,39.0,-100.00,ESE,121,8.0,16.0,39,0.00,,,0.00,260.000000,,2013-05-24 01:42:00,
2013-05-23 20:51:00,59.0,39.0,-100.00,ESE,106,5.0,11.0,48,0.00,,,0.00,74.000000,,2013-05-24 01:51:00,
2013-05-23 21:11:00,59.0,39.0,-100.00,ESE,106,5.0,11.0,48,0.00,,,0.00,74.000000,,2013-05-24 02:11:00,
2013-05-23 21:21:00,59.0,39.0,-100.00,ESE,106,5.0,11.0,48,0.00,,,0.00,74.000000,,2013-05-24 02:21:00,
2013-05-23 21:32:00,59.0,39.0,-100.00,ESE,106,5.0,11.0,48,0.00,,,0.00,74.000000,,2013-05-24 02:32:00,
2013-05-23 21:42:00,59.0,39.0,-100.00,ESE,106,5.0,11.0,48,0.00,,,0.00,74.000000,,2013-05-24 02:42:00,
2013-05-23 21:51:00,50.0,41.0,-100.00,ENE,71,2.0,7.0,72,0.00,,,0.00,1.000000,,2013-05-24 02:51:00,
2013-05-23 22:11:00,50.0,41.0,-100.00,ENE,71,2.0,7.0,72,0.00,,,0.00,1.000000,,2013-05-24 03:11:00,
2013-05-23 22:22:00,50.0,41.0,-100.00,ENE,71,2.0,7.0,72,0.00,,,0.00,1.000000,,2013-05-24 03:22:00,
2013-05-23 22:33:00,50.0,41.0,-100.00,ENE,71,2.0,7.0,72,0.00,,,0.00,1.000000,,2013-05-24 03:33:00,
2013-05-23 22:42:00,50.0,41.0,-100.00,ENE,71,2.0,7.0,72,0.00,,,0.00,1.000000,,2013-05-24 03:42:00,
2013-05-23 22:51:00,46.0,41.0,-100.00,NE,49,2.0,4.0,83,0.00,,,0.00,0.000000,,2013-05-24 03:51:00,
2013-05-23 23:12:00,46.0,41.0,-100.00,NE,49,2.0,4.0,83,0.00,,,0.00,0.000000,,2013-05-24 04:12:00,
2013-05-23 23:22:00,46.0,41.0,-100.00,NE,49,2.0,4.0,83,0.00,,,0.00,0.000000,,2013-05-24 04:22:00,
2013-05-23 23:33:00,46.0,41.0,-100.00,NE,49,2.0,4.0,83,0.00,,,0.00,0.000000,,2013-05-24 04:33:00,
2013-05-23 23:42:00,46.0,41.0,-100.00,NE,49,2.0,4.0,83,0.00,,,0.00,0.000000,,2013-05-24 04:42:00,
2013-05-23 23:51:00,45.0,39.0,-100.00,ENE,57,0.0,4.0,80,0.00,,,0.00,0.000000,,2013-05-24 04:51:00,